»·PEaware :: N410CA KPDX-KSEA

N410CA :: KPDX-KSEA

FLIGHT INFORMATION

Flight Status: Arrived
Operator: Privately registered:
United States
More flights under this callsign
Pilot: John N. (27346)
Aircraft: PIPER PA-31T-620 CHEYENNE 2
(PAY2)
More flights by this aircraft type
Origin: KPDX Portland Intl
United States
Destination: KSEA Seattle-Tacoma Intl
United States
More flights between these airports :: More routes between these airports
Route: +PTLD1 BTG HAWKZ7
File this flight plan on PilotEdge
Remarks:
Altitude:
(Current/Filed)
19,000ft
Speed:
(Current/Filed)
250kts
Departed: 25-Apr-20 11:21 AM
Arrived: 25-Apr-20 12:13 PM
Distance/Time
Traveled:
113nm/0:51
Distance/Time
To Go:
Arrived

Flight Plot

Page will automatically refresh every two minutes.

Flight plan parsing failed; only flown route is shown


Map Options




Map Legend


Flown Route
Filed Route
Departure Airport
Arrival Airport
Navaid (VOR, NDB)
Fix

Horizontal Profiles

Position Reports

Time Latitude Longitude Heading Altitude Ground
Speed
25-Apr-20 10:34 45.587117 -122.582677 208 20ft 0kts
25-Apr-20 10:35 45.587117 -122.582677 208 20ft 0kts
25-Apr-20 10:37 45.587117 -122.582677 208 20ft 0kts
25-Apr-20 10:38 45.587117 -122.582677 208 20ft 0kts
25-Apr-20 10:39 45.587117 -122.582677 208 20ft 0kts
25-Apr-20 10:44 45.587117 -122.582677 208 20ft 0kts
25-Apr-20 10:45 45.587117 -122.582677 208 20ft 0kts
25-Apr-20 10:46 45.587117 -122.582677 208 20ft 0kts
25-Apr-20 10:47 45.587117 -122.582677 208 20ft 0kts
25-Apr-20 10:48 45.587117 -122.582677 208 20ft 0kts
25-Apr-20 10:49 45.587117 -122.582677 208 20ft 0kts
25-Apr-20 10:50 45.587117 -122.582677 208 20ft 0kts
25-Apr-20 10:51 45.587117 -122.582677 208 20ft 0kts
25-Apr-20 10:52 45.587117 -122.582677 208 20ft 0kts
25-Apr-20 10:53 45.587117 -122.582677 208 20ft 0kts
25-Apr-20 10:54 45.587117 -122.582677 208 20ft 0kts
25-Apr-20 10:55 45.587117 -122.582677 208 20ft 0kts
25-Apr-20 10:56 45.587117 -122.582677 208 20ft 0kts
25-Apr-20 10:56 45.587117 -122.582677 208 20ft 0kts
25-Apr-20 10:57 45.587117 -122.582677 208 20ft 0kts
25-Apr-20 10:59 45.587117 -122.582677 208 20ft 0kts
25-Apr-20 10:59 45.587117 -122.582677 208 20ft 0kts
25-Apr-20 11:00 45.587117 -122.582677 208 20ft 0kts
25-Apr-20 11:01 45.587117 -122.582677 208 20ft 0kts
25-Apr-20 11:02 45.587117 -122.582677 208 20ft 0kts
25-Apr-20 11:03 45.587057 -122.582417 15 20ft 0kts
25-Apr-20 11:04 45.587577 -122.583232 309 20ft 3kts
25-Apr-20 11:05 45.589141 -122.587179 300 20ft 22kts
25-Apr-20 11:06 45.592457 -122.595098 300 22ft 22kts
25-Apr-20 11:07 45.593970 -122.598649 83 23ft 26kts
25-Apr-20 11:08 45.594238 -122.597823 44 23ft 0kts
25-Apr-20 11:09 45.594238 -122.597823 44 23ft 0kts
25-Apr-20 11:10 45.594238 -122.597823 44 23ft 0kts
25-Apr-20 11:11 45.594239 -122.597822 46 23ft 0kts
25-Apr-20 11:12 45.594239 -122.597822 46 23ft 0kts
25-Apr-20 11:13 45.594240 -122.597821 45 23ft 0kts
25-Apr-20 11:14 45.594240 -122.597821 46 23ft 0kts
25-Apr-20 11:15 45.594240 -122.597821 46 23ft 0kts
25-Apr-20 11:16 45.594242 -122.597818 44 23ft 0kts
25-Apr-20 11:17 45.594242 -122.597818 44 23ft 0kts
25-Apr-20 11:18 45.594242 -122.597818 44 23ft 0kts
25-Apr-20 11:19 45.594242 -122.597817 43 23ft 0kts
25-Apr-20 11:20 45.593799 -122.592934 116 20ft 73kts
25-Apr-20 11:21 45.577960 -122.545450 106 1608ft 140kts
25-Apr-20 11:22 45.577655 -122.493633 35 3705ft 130kts
25-Apr-20 11:23 45.610753 -122.503438 338 5598ft 127kts
25-Apr-20 11:24 45.648442 -122.523675 319 6927ft 129kts
25-Apr-20 11:25 45.683891 -122.540223 333 8399ft 135kts
25-Apr-20 11:26 45.720277 -122.552254 329 9990ft 140kts
25-Apr-20 11:27 45.758044 -122.570149 320 11686ft 149kts
25-Apr-20 11:28 45.796775 -122.594157 334 13641ft 166kts
25-Apr-20 11:29 45.843383 -122.603043 334 15540ft 172kts
25-Apr-20 11:30 45.890812 -122.612636 332 17228ft 175kts
25-Apr-20 11:31 45.938643 -122.624545 330 18750ft 176kts
25-Apr-20 11:32 45.992022 -122.641190 330 19135ft 222kts
25-Apr-20 11:33 46.056280 -122.664181 336 19128ft 254kts
25-Apr-20 11:34 46.127379 -122.682302 337 19121ft 262kts
25-Apr-20 11:35 46.198566 -122.700383 337 19119ft 256kts
25-Apr-20 11:36 46.268203 -122.717675 337 19120ft 253kts
25-Apr-20 11:37 46.337956 -122.732776 344 19122ft 259kts
25-Apr-20 11:38 46.409822 -122.738040 344 19120ft 259kts
25-Apr-20 11:39 46.481571 -122.743200 344 19113ft 259kts
25-Apr-20 11:40 46.553583 -122.747188 348 18608ft 261kts
25-Apr-20 11:41 46.625830 -122.745844 348 17962ft 259kts
25-Apr-20 11:42 46.697369 -122.744712 348 17405ft 257kts
25-Apr-20 11:43 46.767120 -122.743823 348 16901ft 254kts
25-Apr-20 11:44 46.832987 -122.705388 41 15524ft 283kts
25-Apr-20 11:45 46.885170 -122.620568 43 14453ft 279kts
25-Apr-20 11:46 46.936160 -122.537619 43 13945ft 272kts
25-Apr-20 11:47 46.990053 -122.464754 14 13463ft 253kts
25-Apr-20 11:48 47.055230 -122.461587 344 12980ft 230kts
25-Apr-20 11:49 47.117691 -122.475586 342 12400ft 226kts
25-Apr-20 11:50 47.180476 -122.454079 3 10812ft 235kts
25-Apr-20 11:51 47.244861 -122.445508 355 8838ft 234kts
25-Apr-20 11:52 47.309757 -122.445105 354 7987ft 238kts
25-Apr-20 11:53 47.377530 -122.444572 355 7540ft 245kts
25-Apr-20 11:54 47.440652 -122.451009 351 6965ft 214kts
25-Apr-20 11:55 47.496804 -122.451520 356 6967ft 194kts
25-Apr-20 11:56 47.549670 -122.450559 356 6969ft 186kts
25-Apr-20 11:57 47.600947 -122.449586 356 6969ft 183kts
25-Apr-20 11:58 47.651472 -122.448583 356 6970ft 182kts
25-Apr-20 11:59 47.702015 -122.447499 356 6969ft 182kts
25-Apr-20 12:00 47.752316 -122.444514 21 6959ft 186kts
25-Apr-20 12:01 47.766314 -122.379722 92 6482ft 168kts
25-Apr-20 12:02 47.759238 -122.319477 155 5969ft 133kts
25-Apr-20 12:03 47.731674 -122.308993 177 5978ft 106kts
25-Apr-20 12:04 47.699080 -122.303539 177 5629ft 118kts
25-Apr-20 12:05 47.666151 -122.304679 181 4431ft 114kts
25-Apr-20 12:06 47.636724 -122.305611 176 3849ft 102kts
25-Apr-20 12:07 47.604574 -122.310396 181 3484ft 122kts
25-Apr-20 12:08 47.569201 -122.311035 182 2627ft 128kts
25-Apr-20 12:09 47.534642 -122.310812 176 1663ft 122kts
25-Apr-20 12:10 47.500537 -122.310592 179 1046ft 130kts
25-Apr-20 12:11 47.467689 -122.310959 180 623ft 111kts
25-Apr-20 12:12 47.453873 -122.310913 173 415ft 10kts

Navigation Log

Ident Type
Flight plan parsing failed, navigation log unavailable